createdAt,value
2023-04-22T00:00:22.759Z,11.874695
2023-04-22T00:01:32.436Z,11.834412
2023-04-22T00:02:41.353Z,11.733704
2023-04-22T00:03:51.094Z,11.703491
2023-04-22T00:04:59.864Z,11.663208
2023-04-22T00:06:08.372Z,11.69342
2023-04-22T00:07:18.074Z,11.68335
2023-04-22T00:08:25.908Z,11.69342
2023-04-22T00:09:34.682Z,11.68335
2023-04-22T00:10:44.385Z,11.663208
2023-04-22T00:11:53.056Z,11.663208
2023-04-22T00:13:02.736Z,11.632996
2023-04-22T00:14:11.448Z,11.592712
2023-04-22T00:15:19.087Z,11.592712
2023-04-22T00:16:28.851Z,11.522217
2023-04-22T00:17:36.541Z,11.502075
2023-04-22T00:18:45.260Z,11.451721
2023-04-22T00:19:54.981Z,11.43158
2023-04-22T00:21:02.646Z,11.351013
2023-04-22T00:22:12.364Z,11.320801
2023-04-22T00:23:21.171Z,11.300659
2023-04-22T00:24:28.850Z,11.270447
2023-04-22T00:25:38.562Z,11.290588
2023-04-22T00:26:48.283Z,11.351013
2023-04-22T00:27:58.012Z,11.351013
2023-04-22T00:29:07.737Z,11.361084
2023-04-22T00:30:16.454Z,11.320801
2023-04-22T00:31:26.206Z,11.290588
2023-04-22T00:32:35.816Z,11.260376
2023-04-22T00:33:44.534Z,11.260376
2023-04-22T00:34:54.214Z,11.250305
2023-04-22T00:36:01.901Z,11.230164
2023-04-22T00:37:10.576Z,11.230164
2023-04-22T00:38:20.305Z,11.230164
2023-04-22T00:39:28.972Z,11.220093
2023-04-22T00:40:38.657Z,11.18988
2023-04-22T00:41:47.355Z,11.149597
2023-04-22T00:42:56.325Z,10.988464
2023-04-22T00:44:05.959Z,10.887756
2023-04-22T00:45:13.675Z,10.958252
2023-04-22T00:46:22.443Z,11.048889
2023-04-22T00:47:32.089Z,11.109314
2023-04-22T00:48:40.860Z,11.139526
2023-04-22T00:49:50.584Z,11.149597
2023-04-22T00:50:59.229Z,11.17981
2023-04-22T00:52:06.913Z,11.169739
2023-04-22T00:53:16.621Z,11.119385
2023-04-22T00:54:26.306Z,11.099243
2023-04-22T00:55:34.979Z,11.079102
2023-04-22T00:56:44.694Z,11.038818
2023-04-22T00:57:53.432Z,11.038818
2023-04-22T00:59:03.114Z,11.018677
2023-04-22T01:00:11.849Z,10.998535
2023-04-22T01:01:20.592Z,11.018677
2023-04-22T01:02:30.351Z,11.018677
2023-04-22T01:03:39.189Z,10.958252
2023-04-22T01:04:47.594Z,10.897827
2023-04-22T01:05:57.238Z,10.857544
2023-04-22T01:07:04.941Z,10.887756
2023-04-22T01:09:50.393Z,10.787048
2023-04-22T01:10:58.061Z,10.736694
2023-04-22T01:12:06.698Z,10.706482
2023-04-22T01:13:15.383Z,10.746765
2023-04-22T01:14:24.043Z,10.746765
2023-04-22T01:15:33.714Z,10.706482
2023-04-22T01:16:43.446Z,10.716553
2023-04-22T01:17:52.147Z,10.706482
2023-04-22T01:19:01.754Z,10.736694
2023-04-22T01:20:09.388Z,10.716553
2023-04-22T01:21:19.034Z,10.716553
2023-04-22T01:22:27.709Z,10.666199
2023-04-22T01:23:35.395Z,10.625916
2023-04-22T01:24:45.039Z,10.595703
2023-04-22T01:25:53.706Z,10.55542
2023-04-22T01:27:03.355Z,10.55542
2023-04-22T01:28:13.024Z,10.585632
2023-04-22T01:29:21.666Z,10.585632
2023-04-22T01:30:31.318Z,10.605774
2023-04-22T01:31:39.984Z,10.625916
2023-04-22T01:32:48.674Z,10.666199
2023-04-22T01:33:58.345Z,10.67627
2023-04-22T01:35:07.966Z,10.666199
2023-04-22T01:36:16.604Z,10.635986
2023-04-22T01:37:26.255Z,10.595703
2023-04-22T01:38:35.934Z,10.55542
2023-04-22T01:39:44.579Z,10.55542
2023-04-22T01:40:52.214Z,10.625916
2023-04-22T01:42:01.874Z,10.635986
2023-04-22T01:43:10.515Z,10.635986
2023-04-22T01:44:20.171Z,10.625916
2023-04-22T01:45:27.850Z,10.605774
2023-04-22T01:46:37.677Z,10.595703
2023-04-22T01:47:47.250Z,10.535278
2023-04-22T01:48:55.842Z,10.494995
2023-04-22T01:50:05.619Z,10.414429
2023-04-22T01:51:14.131Z,10.404358
2023-04-22T01:52:22.797Z,10.343933
2023-04-22T01:53:32.467Z,10.414429
2023-04-22T01:54:41.096Z,10.505066
2023-04-22T01:55:50.731Z,10.535278
2023-04-22T01:56:59.364Z,10.535278
2023-04-22T01:58:08.019Z,10.55542
2023-04-22T01:59:17.713Z,10.535278
2023-04-22T02:00:27.387Z,10.4245
2023-04-22T02:01:37.057Z,10.414429
2023-04-22T02:02:46.737Z,10.374146
2023-04-22T02:03:55.389Z,10.374146
2023-04-22T02:05:05.037Z,10.404358
2023-04-22T02:06:13.710Z,10.374146
2023-04-22T02:07:22.320Z,10.404358
2023-04-22T02:08:31.984Z,10.404358
2023-04-22T02:09:39.807Z,10.354004
2023-04-22T02:10:49.280Z,10.404358
2023-04-22T02:11:58.936Z,10.414429
2023-04-22T02:13:07.589Z,10.444641
2023-04-22T02:14:17.286Z,10.414429
2023-04-22T02:15:25.935Z,10.414429
2023-04-22T02:16:35.619Z,10.4245
2023-04-22T02:17:45.280Z,10.414429
2023-04-22T02:18:54.109Z,10.263367
2023-04-22T02:20:02.791Z,10.233154
2023-04-22T02:21:12.400Z,10.233154
2023-04-22T02:22:21.071Z,10.30365
2023-04-22T02:23:30.745Z,10.313721
2023-04-22T02:24:39.393Z,10.354004
2023-04-22T02:25:47.019Z,10.30365
2023-04-22T02:26:56.669Z,10.192871
2023-04-22T02:28:04.316Z,10.233154
2023-04-22T02:29:13.978Z,10.202942
2023-04-22T02:30:22.657Z,10.102234
2023-04-22T02:31:31.354Z,10.041809
2023-04-22T02:32:41.022Z,9.991455
2023-04-22T02:33:49.640Z,9.951172
2023-04-22T02:34:58.304Z,10.011597
2023-04-22T02:36:07.947Z,10.072021
2023-04-22T02:37:16.649Z,10.132446
2023-04-22T02:38:26.304Z,10.072021
2023-04-22T02:39:34.964Z,10.072021
2023-04-22T02:40:43.618Z,10.041809
2023-04-22T02:41:53.260Z,10.021667
2023-04-22T02:43:02.977Z,9.981384
2023-04-22T02:44:12.632Z,9.840393
2023-04-22T02:45:22.273Z,9.820251
2023-04-22T02:46:29.950Z,9.729614
2023-04-22T02:47:38.584Z,9.790039
2023-04-22T02:48:48.276Z,9.870605
2023-04-22T02:49:57.945Z,9.890747
2023-04-22T02:51:07.624Z,9.971313
2023-04-22T02:52:17.236Z,9.890747
2023-04-22T02:53:25.897Z,9.870605
2023-04-22T02:54:35.617Z,9.840393
2023-04-22T02:55:45.238Z,9.870605
2023-04-22T02:56:54.918Z,9.759827
2023-04-22T02:58:04.595Z,9.739685
2023-04-22T02:59:12.263Z,9.689331
2023-04-22T03:00:21.916Z,9.659119
2023-04-22T03:01:31.674Z,9.719543
2023-04-22T03:02:40.336Z,9.689331
2023-04-22T03:03:50.008Z,9.689331
2023-04-22T03:04:58.579Z,9.67926
2023-04-22T03:06:07.232Z,9.729614
2023-04-22T03:07:16.912Z,9.830322
2023-04-22T03:08:25.538Z,9.769897
2023-04-22T03:09:35.226Z,9.739685
2023-04-22T03:10:43.919Z,9.739685
2023-04-22T03:11:51.526Z,9.80011
2023-04-22T03:13:01.179Z,9.920959
2023-04-22T03:14:09.845Z,9.981384
2023-04-22T03:15:21.378Z,9.941101
2023-04-22T03:16:29.216Z,9.910889
2023-04-22T03:17:36.915Z,9.951172
2023-04-22T03:18:46.555Z,9.890747
2023-04-22T03:19:55.246Z,9.910889
2023-04-22T03:21:02.900Z,9.910889
2023-04-22T03:22:12.586Z,9.840393
2023-04-22T03:23:22.191Z,9.840393
2023-04-22T03:24:31.837Z,9.80011
2023-04-22T03:25:41.507Z,9.790039
2023-04-22T03:26:48.172Z,9.729614
2023-04-22T03:27:57.812Z,9.739685
2023-04-22T03:29:06.488Z,9.638977
2023-04-22T03:30:15.185Z,9.608765
2023-04-22T03:31:23.849Z,9.638977
2023-04-22T03:32:31.540Z,9.578552
2023-04-22T03:33:40.132Z,9.608765
2023-04-22T03:34:49.797Z,9.608765
2023-04-22T03:35:57.460Z,9.457703
2023-04-22T03:37:07.108Z,9.387207
2023-04-22T03:38:15.750Z,9.336853
2023-04-22T03:39:24.415Z,9.316711
2023-04-22T03:40:33.087Z,9.316711
2023-04-22T03:41:42.753Z,9.367065
2023-04-22T03:42:50.425Z,9.356995
2023-04-22T03:44:01.746Z,9.387207
2023-04-22T03:45:09.747Z,9.336853
2023-04-22T03:46:17.441Z,9.336853
2023-04-22T03:47:27.060Z,9.316711
2023-04-22T03:48:34.683Z,9.286499
2023-04-22T03:49:44.383Z,9.205933
2023-04-22T03:50:54.020Z,9.246216
2023-04-22T03:52:01.660Z,9.276428
2023-04-22T03:53:11.319Z,9.256287
2023-04-22T03:54:20.936Z,9.306641
2023-04-22T03:55:30.674Z,9.306641
2023-04-22T03:56:40.398Z,9.356995
2023-04-22T03:57:48.038Z,9.306641
2023-04-22T03:58:56.756Z,9.336853
2023-04-22T04:00:06.395Z,9.407349
2023-04-22T04:01:15.052Z,9.356995
2023-04-22T04:02:24.789Z,9.42749
2023-04-22T04:03:33.661Z,9.457703
2023-04-22T04:04:42.279Z,9.467773
2023-04-22T04:05:51.864Z,9.538269
2023-04-22T04:06:59.395Z,9.558411
2023-04-22T04:08:07.032Z,9.558411
2023-04-22T04:09:16.716Z,9.618835
2023-04-22T04:10:25.390Z,9.67926
2023-04-22T04:11:35.072Z,9.67926
2023-04-22T04:12:44.744Z,9.719543
2023-04-22T04:13:53.410Z,9.588623
2023-04-22T04:15:03.094Z,9.54834
2023-04-22T04:16:12.810Z,9.497986
2023-04-22T04:17:21.417Z,9.558411
2023-04-22T04:18:31.038Z,9.508057
2023-04-22T04:19:39.905Z,9.578552
2023-04-22T04:20:49.414Z,9.638977
2023-04-22T04:21:59.061Z,9.729614
2023-04-22T04:23:08.727Z,9.689331
2023-04-22T04:24:18.424Z,9.689331
2023-04-22T04:25:27.171Z,9.578552
2023-04-22T04:26:36.807Z,9.497986
2023-04-22T04:27:46.467Z,9.538269
2023-04-22T04:28:54.120Z,9.467773
2023-04-22T04:30:03.828Z,9.578552
2023-04-22T04:31:13.543Z,9.578552
2023-04-22T04:32:21.140Z,9.618835
2023-04-22T04:33:30.768Z,9.618835
2023-04-22T04:34:39.427Z,9.659119
2023-04-22T04:35:48.081Z,9.689331
2023-04-22T04:36:57.724Z,9.739685
2023-04-22T04:38:05.483Z,9.759827
2023-04-22T04:39:15.065Z,9.759827
2023-04-22T04:40:23.771Z,9.67926
2023-04-22T04:41:32.415Z,9.649048
2023-04-22T04:42:42.055Z,9.608765
2023-04-22T04:43:50.719Z,9.538269
2023-04-22T04:44:59.364Z,9.497986
2023-04-22T04:46:09.022Z,9.497986
2023-04-22T04:47:17.672Z,9.558411
2023-04-22T04:48:27.320Z,9.578552
2023-04-22T04:49:36.980Z,9.538269
2023-04-22T04:50:45.665Z,9.497986
2023-04-22T04:51:54.324Z,9.497986
2023-04-22T04:53:02.976Z,9.508057
2023-04-22T04:54:12.607Z,9.437561
2023-04-22T04:55:23.284Z,9.356995
2023-04-22T04:56:33.052Z,9.336853
2023-04-22T04:57:42.720Z,9.356995
2023-04-22T04:58:51.365Z,9.387207
2023-04-22T05:00:00.065Z,9.316711
2023-04-22T05:01:09.744Z,9.387207
2023-04-22T05:02:17.482Z,9.387207
2023-04-22T05:03:27.223Z,9.437561
2023-04-22T05:04:36.784Z,9.407349
2023-04-22T05:05:44.366Z,9.397278
2023-04-22T05:06:53.008Z,9.367065
2023-04-22T05:08:02.772Z,9.467773
2023-04-22T05:09:11.425Z,9.538269
2023-04-22T05:10:21.114Z,9.618835
2023-04-22T05:11:28.748Z,9.739685
2023-04-22T05:12:37.425Z,9.769897
2023-04-22T05:13:46.095Z,9.830322
2023-04-22T05:14:54.754Z,9.80011
2023-04-22T05:16:04.472Z,9.80011
2023-04-22T05:17:13.178Z,9.769897
2023-04-22T05:18:19.819Z,9.910889
2023-04-22T05:19:29.508Z,9.951172
2023-04-22T05:20:38.160Z,9.951172
2023-04-22T05:21:47.815Z,10.011597
2023-04-22T05:22:57.448Z,9.951172
2023-04-22T05:24:06.134Z,10.021667
2023-04-22T05:25:15.834Z,10.132446
2023-04-22T05:26:24.481Z,10.192871
2023-04-22T05:27:33.134Z,10.152588
2023-04-22T05:28:42.828Z,9.991455
2023-04-22T05:29:50.497Z,10.021667
2023-04-22T05:31:00.339Z,10.172729
2023-04-22T05:32:10.068Z,10.162659
2023-04-22T05:33:17.755Z,10.102234
2023-04-22T05:34:27.379Z,10.172729
2023-04-22T05:35:36.095Z,10.333862
2023-04-22T05:36:44.723Z,10.4245
2023-04-22T05:37:52.363Z,10.333862
2023-04-22T05:39:02.011Z,10.283508
2023-04-22T05:40:09.672Z,10.414429
2023-04-22T05:41:19.331Z,10.595703
2023-04-22T05:42:28.996Z,10.746765
2023-04-22T05:43:38.649Z,10.736694
2023-04-22T05:44:48.343Z,10.585632
2023-04-22T05:45:56.076Z,10.746765
2023-04-22T05:47:04.646Z,10.706482
2023-04-22T05:48:14.295Z,10.817261
2023-04-22T05:49:21.957Z,10.93811
2023-04-22T05:50:31.635Z,11.079102
2023-04-22T05:51:41.288Z,11.069031
2023-04-22T05:52:48.925Z,11.079102
2023-04-22T05:53:58.588Z,11.139526
2023-04-22T05:55:06.246Z,11.17981
2023-04-22T05:56:15.028Z,11.270447
2023-04-22T05:57:24.750Z,11.300659
2023-04-22T05:58:33.397Z,11.371155
2023-04-22T05:59:43.269Z,11.512146
2023-04-22T06:00:51.758Z,11.542358
2023-04-22T06:02:01.546Z,11.703491
2023-04-22T06:03:11.573Z,11.753845
2023-04-22T06:04:20.220Z,11.69342
2023-04-22T06:05:28.763Z,11.773987
2023-04-22T06:06:38.325Z,11.81427
2023-04-22T06:07:45.988Z,11.874695
2023-04-22T06:08:55.643Z,11.94519
2023-04-22T06:10:05.266Z,12.116394
2023-04-22T06:11:12.008Z,12.126465
2023-04-22T06:12:22.673Z,12.217102
2023-04-22T06:13:30.324Z,12.277527
2023-04-22T06:14:39.947Z,12.458801
2023-04-22T06:15:49.649Z,12.539368
2023-04-22T06:16:57.276Z,12.539368
2023-04-22T06:18:07.939Z,12.7005
2023-04-22T06:19:17.593Z,12.831421
2023-04-22T06:20:26.267Z,12.831421
2023-04-22T06:21:35.941Z,12.760925
2023-04-22T06:22:44.583Z,12.82135
2023-04-22T06:23:53.256Z,13.032837
2023-04-22T06:25:02.897Z,13.133545
2023-04-22T06:26:11.567Z,13.133545
2023-04-22T06:27:21.215Z,13.284607
2023-04-22T06:28:30.864Z,13.304749
2023-04-22T06:29:39.606Z,13.385315
2023-04-22T06:30:49.188Z,13.586731
2023-04-22T06:31:57.825Z,13.616943
2023-04-22T06:33:06.507Z,13.647156
2023-04-22T06:34:16.102Z,13.768005
2023-04-22T06:35:24.760Z,13.858643
2023-04-22T06:36:34.615Z,13.989563
2023-04-22T06:37:43.269Z,14.049988
2023-04-22T06:38:50.913Z,14.049988
2023-04-22T06:40:01.611Z,14.140625
2023-04-22T06:41:11.236Z,14.301758
2023-04-22T06:42:19.902Z,14.352112
2023-04-22T06:43:29.536Z,14.624023
2023-04-22T06:44:39.203Z,14.724731
2023-04-22T06:45:48.875Z,14.83551
2023-04-22T06:46:58.157Z,14.966431
2023-04-22T06:48:06.220Z,15.026855
2023-04-22T06:49:15.853Z,15.067139
2023-04-22T06:50:23.568Z,15.097351
2023-04-22T06:51:32.225Z,15.328979
2023-04-22T06:52:41.912Z,15.510254
2023-04-22T06:53:49.563Z,15.469971
2023-04-22T06:54:59.203Z,15.762024
2023-04-22T06:56:08.870Z,15.862732
2023-04-22T06:57:17.518Z,16.09436
2023-04-22T06:58:27.157Z,16.255493
2023-04-22T06:59:35.859Z,16.305847
2023-04-22T07:00:45.602Z,16.487122
2023-04-22T07:01:55.360Z,16.5979
2023-04-22T07:03:04.006Z,16.789246
2023-04-22T07:04:13.633Z,16.910095
2023-04-22T07:05:22.258Z,17.081299
2023-04-22T07:06:30.922Z,17.151794
2023-04-22T07:07:40.643Z,17.333069
2023-04-22T07:08:50.324Z,17.494202
2023-04-22T07:09:59.969Z,17.675476
2023-04-22T07:11:09.907Z,17.705688
2023-04-22T07:12:20.389Z,17.886963
2023-04-22T07:13:29.993Z,18.158875
2023-04-22T07:14:38.653Z,18.279724
2023-04-22T07:15:47.371Z,18.450928
2023-04-22T07:16:57.005Z,18.652344
2023-04-22T07:18:04.683Z,18.73291
2023-04-22T07:19:13.382Z,18.843689
2023-04-22T07:20:23.085Z,18.964539
2023-04-22T07:21:31.734Z,19.004822
2023-04-22T07:22:41.422Z,19.23645
2023-04-22T07:23:50.086Z,19.397583
2023-04-22T07:24:59.734Z,19.548645
2023-04-22T07:26:08.468Z,19.468079
2023-04-22T07:27:16.169Z,19.48822
2023-04-22T07:28:24.844Z,19.578857
2023-04-22T07:29:34.490Z,19.629211
2023-04-22T07:30:44.157Z,19.880981
2023-04-22T07:31:53.871Z,20.092468
2023-04-22T07:33:02.586Z,20.193176
2023-04-22T07:34:12.186Z,20.344238
2023-04-22T07:35:21.794Z,20.596008
2023-04-22T07:36:31.537Z,20.797424
2023-04-22T07:37:40.220Z,20.86792
2023-04-22T07:38:49.877Z,20.928345
2023-04-22T07:39:58.521Z,20.958557
2023-04-22T07:41:08.186Z,20.98877
2023-04-22T07:42:17.855Z,20.777283
2023-04-22T07:43:26.554Z,20.958557
2023-04-22T07:44:36.095Z,21.170044
2023-04-22T07:45:44.882Z,21.452026
2023-04-22T07:46:52.496Z,21.663513
2023-04-22T07:48:02.199Z,21.945496
2023-04-22T07:49:10.844Z,21.955566
2023-04-22T07:50:17.492Z,21.170044
2023-04-22T07:51:27.218Z,21.089478
2023-04-22T07:52:35.965Z,21.210327
2023-04-22T07:53:44.632Z,21.552734
2023-04-22T07:54:54.341Z,21.794434
2023-04-22T07:56:02.153Z,21.774292
2023-04-22T07:57:11.485Z,21.391602
2023-04-22T07:58:21.144Z,21.582947
2023-04-22T07:59:28.809Z,21.331177
2023-04-22T08:00:37.483Z,21.462097
2023-04-22T08:01:46.070Z,21.512451
2023-04-22T08:02:55.852Z,21.552734
2023-04-22T08:04:04.575Z,21.572876
2023-04-22T08:05:13.137Z,21.905212
2023-04-22T08:06:22.724Z,22.12677
2023-04-22T08:07:33.255Z,22.227478
2023-04-22T08:08:40.055Z,22.469177
2023-04-22T08:09:49.723Z,22.690735
2023-04-22T08:10:57.437Z,22.942505
2023-04-22T08:12:06.080Z,23.184204
2023-04-22T08:13:17.148Z,23.284912
2023-04-22T08:14:23.436Z,23.425903
2023-04-22T08:15:33.096Z,23.546753
2023-04-22T08:16:42.791Z,23.647461
2023-04-22T08:17:50.536Z,23.738098
2023-04-22T08:19:00.126Z,23.728027
2023-04-22T08:20:08.239Z,23.627319
2023-04-22T08:21:16.478Z,23.395691
2023-04-22T08:22:26.126Z,23.13385
2023-04-22T08:23:35.818Z,23.2547
2023-04-22T08:24:45.473Z,23.466187
2023-04-22T08:25:54.175Z,23.647461
2023-04-22T08:27:02.859Z,23.828735
2023-04-22T08:28:11.546Z,23.979797
2023-04-22T08:29:20.219Z,24.060364
2023-04-22T08:30:29.887Z,23.979797
2023-04-22T08:31:39.664Z,23.869019
2023-04-22T08:32:49.534Z,23.647461
2023-04-22T08:33:59.185Z,23.556824
2023-04-22T08:35:06.828Z,23.808594
2023-04-22T08:36:15.487Z,24.01001
2023-04-22T08:37:25.184Z,24.161072
2023-04-22T08:38:32.847Z,24.382629
2023-04-22T08:39:42.542Z,24.573975
2023-04-22T08:40:52.245Z,24.654541
2023-04-22T08:42:00.902Z,24.573975
2023-04-22T08:43:11.425Z,24.161072
2023-04-22T08:44:21.097Z,24.201355
2023-04-22T08:45:30.794Z,24.382629
2023-04-22T08:46:40.502Z,24.553833
2023-04-22T08:47:48.136Z,24.795532
2023-04-22T08:48:56.798Z,24.946594
2023-04-22T08:50:06.462Z,25.037231
2023-04-22T08:51:16.117Z,25.137939
2023-04-22T08:52:25.795Z,25.460205
2023-04-22T08:53:33.513Z,25.661621
2023-04-22T08:54:42.196Z,25.722046
2023-04-22T08:55:51.881Z,25.621338
2023-04-22T08:57:00.513Z,25.591125
2023-04-22T08:58:09.192Z,25.681763
2023-04-22T08:59:18.860Z,25.953674
2023-04-22T09:00:27.494Z,26.034241
2023-04-22T09:01:37.186Z,26.205444
2023-04-22T09:02:46.012Z,26.225586
2023-04-22T09:03:53.577Z,26.356506
2023-04-22T09:05:03.183Z,26.467285
2023-04-22T09:06:11.801Z,26.366577
2023-04-22T09:07:20.452Z,26.52771
2023-04-22T09:08:30.151Z,26.598206
2023-04-22T09:09:39.136Z,26.477356
2023-04-22T09:10:48.595Z,26.205444
2023-04-22T09:11:57.255Z,25.883179
2023-04-22T09:13:06.995Z,26.004028
2023-04-22T09:14:16.685Z,26.054382
2023-04-22T09:15:25.305Z,26.004028
2023-04-22T09:16:33.998Z,26.14502
2023-04-22T09:17:43.689Z,26.255798
2023-04-22T09:18:52.348Z,26.27594
2023-04-22T09:20:01.996Z,26.215515
2023-04-22T09:21:10.678Z,26.286011
2023-04-22T09:22:18.288Z,26.366577
2023-04-22T09:23:27.987Z,26.477356
2023-04-22T09:24:36.665Z,26.708984
2023-04-22T09:25:45.350Z,26.930542
2023-04-22T09:26:53.995Z,27.101746
2023-04-22T09:28:01.651Z,27.252808
2023-04-22T09:29:11.349Z,27.353516
2023-04-22T09:30:20.025Z,27.494507
2023-04-22T09:31:28.733Z,27.554932
2023-04-22T09:32:38.378Z,27.585144
2023-04-22T09:33:48.870Z,27.635498
2023-04-22T09:34:55.693Z,27.585144
2023-04-22T09:36:05.311Z,27.03125
2023-04-22T09:37:13.996Z,26.427002
2023-04-22T09:38:21.641Z,26.215515
2023-04-22T09:39:31.336Z,26.205444
2023-04-22T09:40:40.021Z,26.175232
2023-04-22T09:41:49.673Z,25.90332
2023-04-22T09:42:59.348Z,25.581055
2023-04-22T09:44:08.092Z,25.289001
2023-04-22T09:45:17.772Z,25.248718
2023-04-22T09:46:26.470Z,25.359497
2023-04-22T09:47:34.131Z,25.621338
2023-04-22T09:48:43.731Z,25.782471
2023-04-22T09:49:53.425Z,26.004028
2023-04-22T09:51:02.092Z,26.205444
2023-04-22T09:52:10.762Z,26.547852
2023-04-22T09:53:18.439Z,26.729126
2023-04-22T09:54:28.104Z,26.739197
2023-04-22T09:55:37.765Z,26.618347
2023-04-22T09:56:45.419Z,26.65863
2023-04-22T09:57:55.083Z,26.829834
2023-04-22T09:59:04.763Z,26.960754
2023-04-22T10:00:13.426Z,27.111816
2023-04-22T10:01:23.165Z,27.202454
2023-04-22T10:02:31.829Z,27.212524
2023-04-22T10:03:41.516Z,27.1521
2023-04-22T10:04:51.176Z,27.272949
2023-04-22T10:05:59.868Z,27.424011
2023-04-22T10:07:09.525Z,27.373657
2023-04-22T10:08:17.282Z,27.363586
2023-04-22T10:09:26.957Z,27.051392
2023-04-22T10:10:36.629Z,26.960754
2023-04-22T10:11:44.287Z,27.182312
2023-04-22T10:12:54.026Z,27.293091
2023-04-22T10:14:02.897Z,27.484436
2023-04-22T10:15:11.422Z,27.514648
2023-04-22T10:16:21.124Z,27.595215
2023-04-22T10:17:30.819Z,27.595215
2023-04-22T10:18:39.448Z,27.766418
2023-04-22T10:19:49.170Z,28.068542
2023-04-22T10:20:56.868Z,28.229675
2023-04-22T10:22:06.576Z,28.269958
2023-04-22T10:23:14.237Z,28.249817
2023-04-22T10:24:22.921Z,28.229675
2023-04-22T10:25:32.589Z,28.2901
2023-04-22T10:26:41.226Z,28.139038
2023-04-22T10:27:49.862Z,28.199463
2023-04-22T10:28:59.587Z,28.41095
2023-04-22T10:30:09.248Z,28.602295
2023-04-22T10:31:18.964Z,28.66272
2023-04-22T10:32:27.609Z,28.723145
2023-04-22T10:33:37.273Z,28.843994
2023-04-22T10:34:47.008Z,28.390808
2023-04-22T10:35:54.649Z,28.441162
2023-04-22T10:37:03.301Z,27.857056
2023-04-22T10:38:13.019Z,27.40387
2023-04-22T10:39:22.032Z,27.675781
2023-04-22T10:40:31.427Z,28.018188
2023-04-22T10:41:41.131Z,28.068542
2023-04-22T10:42:48.766Z,28.219604
2023-04-22T10:43:58.415Z,28.320312
2023-04-22T10:45:07.091Z,28.441162
2023-04-22T10:46:16.852Z,28.018188
2023-04-22T10:47:26.488Z,27.957764
2023-04-22T10:48:35.144Z,28.199463
2023-04-22T10:49:44.815Z,28.481445
2023-04-22T10:50:53.485Z,28.642578
2023-04-22T10:52:03.137Z,28.753357
2023-04-22T10:53:12.806Z,28.763428
2023-04-22T10:54:21.478Z,28.763428
2023-04-22T10:55:32.165Z,28.91449
2023-04-22T10:56:45.693Z,28.843994
2023-04-22T10:57:52.505Z,28.843994
2023-04-22T10:59:02.118Z,28.572083
2023-04-22T11:00:11.848Z,28.783569
2023-04-22T11:01:20.512Z,28.79364
2023-04-22T11:02:30.268Z,28.632507
2023-04-22T11:03:40.042Z,28.370667
2023-04-22T11:04:49.567Z,27.424011
2023-04-22T11:05:59.222Z,27.353516
2023-04-22T11:07:06.903Z,27.262878
2023-04-22T11:08:15.551Z,27.66571
2023-04-22T11:09:24.267Z,28.068542
2023-04-22T11:10:34.075Z,28.471375
2023-04-22T11:11:44.733Z,28.854065
2023-04-22T11:12:53.398Z,28.974915
2023-04-22T11:14:03.172Z,28.823853
2023-04-22T11:15:12.808Z,29.075623
2023-04-22T11:16:22.415Z,29.377747
2023-04-22T11:17:31.159Z,29.559021
2023-04-22T11:18:39.796Z,29.720154
2023-04-22T11:19:48.470Z,29.41803
2023-04-22T11:20:58.163Z,29.559021
2023-04-22T11:22:06.839Z,29.538879
2023-04-22T11:23:15.519Z,29.720154
2023-04-22T11:24:25.356Z,29.035339
2023-04-22T11:25:35.033Z,27.645569
2023-04-22T11:26:44.697Z,27.736206
2023-04-22T11:27:53.390Z,28.16925
2023-04-22T11:29:03.074Z,28.753357
2023-04-22T11:30:12.884Z,29.357605
2023-04-22T11:31:21.535Z,29.720154
2023-04-22T11:32:30.185Z,29.911499
2023-04-22T11:33:39.860Z,30.133057
2023-04-22T11:34:50.520Z,30.525818
2023-04-22T11:35:59.224Z,30.747375
2023-04-22T11:37:08.878Z,30.999146
2023-04-22T11:38:16.519Z,31.371765
2023-04-22T11:39:25.151Z,31.623535
2023-04-22T11:40:37.075Z,31.694031
2023-04-22T11:41:45.472Z,31.835022
2023-04-22T11:42:55.110Z,32.137146
2023-04-22T11:44:03.785Z,31.714172
2023-04-22T11:45:11.454Z,31.522827
2023-04-22T11:46:21.133Z,31.583252
2023-04-22T11:47:29.804Z,31.583252
2023-04-22T11:48:38.448Z,31.593323
2023-04-22T11:49:48.105Z,31.522827
2023-04-22T11:50:56.003Z,31.170349
2023-04-22T11:52:05.713Z,31.029358
2023-04-22T11:53:13.384Z,31.150208
2023-04-22T11:54:22.206Z,31.492615
2023-04-22T11:55:31.985Z,31.250916
2023-04-22T11:56:41.690Z,31.542969
2023-04-22T11:57:50.397Z,31.613464
2023-04-22T11:59:00.092Z,31.915588
2023-04-22T12:00:07.799Z,31.986084
2023-04-22T12:01:17.523Z,31.643677
2023-04-22T12:02:27.416Z,32.076721
2023-04-22T12:03:35.205Z,32.449341
2023-04-22T12:04:44.680Z,31.885376
2023-04-22T12:05:53.404Z,31.986084
2023-04-22T12:07:03.094Z,32.006226
2023-04-22T12:08:12.744Z,32.268066
2023-04-22T12:09:20.455Z,32.590332
2023-04-22T12:10:29.102Z,32.580261
2023-04-22T12:11:37.814Z,32.580261
2023-04-22T12:12:45.461Z,32.701111
2023-04-22T12:13:55.146Z,32.731323
2023-04-22T12:15:04.839Z,32.922668
2023-04-22T12:16:14.509Z,32.459412
2023-04-22T12:17:24.201Z,32.459412
2023-04-22T12:18:32.869Z,32.489624
2023-04-22T12:19:41.697Z,32.741394
2023-04-22T12:20:50.232Z,32.781677
2023-04-22T12:21:57.938Z,32.962952
2023-04-22T12:23:07.618Z,32.872314
2023-04-22T12:24:15.319Z,32.368774
2023-04-22T12:25:24.986Z,32.328491
2023-04-22T12:26:34.708Z,33.013306
2023-04-22T12:27:43.385Z,33.416138
2023-04-22T12:28:53.138Z,33.688049
2023-04-22T12:30:01.902Z,34.100952
2023-04-22T12:31:11.613Z,33.758545
2023-04-22T12:32:22.028Z,33.547058
2023-04-22T12:33:30.920Z,33.295288
2023-04-22T12:34:39.625Z,33.275146
2023-04-22T12:35:49.247Z,32.932739
2023-04-22T12:36:58.999Z,32.680969
2023-04-22T12:38:08.685Z,30.586243
2023-04-22T12:39:17.348Z,30.354614
2023-04-22T12:40:27.040Z,30.022278
2023-04-22T12:41:36.740Z,30.606384
2023-04-22T12:42:44.424Z,31.029358
2023-04-22T12:43:54.172Z,31.281128
2023-04-22T12:45:03.880Z,31.119995
2023-04-22T12:46:13.616Z,31.492615
2023-04-22T12:47:23.270Z,31.331482
2023-04-22T12:48:32.921Z,31.250916
2023-04-22T12:49:40.853Z,31.210632
2023-04-22T12:50:50.297Z,31.43219
2023-04-22T12:51:58.978Z,31.43219
2023-04-22T12:53:08.683Z,30.354614
2023-04-22T12:54:18.402Z,30.566101
2023-04-22T12:55:27.093Z,31.119995
2023-04-22T12:56:36.780Z,31.885376
2023-04-22T12:57:45.430Z,32.338562
2023-04-22T12:58:53.094Z,31.925659
2023-04-22T13:00:02.767Z,32.429199
2023-04-22T13:01:12.433Z,32.580261
2023-04-22T13:02:22.136Z,32.298279
2023-04-22T13:03:31.857Z,32.680969
2023-04-22T13:04:40.574Z,32.670898
2023-04-22T13:05:50.129Z,32.771606
2023-04-22T13:06:58.837Z,32.852173
2023-04-22T13:08:07.971Z,33.093872
2023-04-22T13:09:16.162Z,33.265076
2023-04-22T13:10:24.841Z,32.922668
2023-04-22T13:11:34.515Z,33.124084
2023-04-22T13:12:44.182Z,33.013306
2023-04-22T13:13:52.852Z,33.395996
2023-04-22T13:15:02.519Z,34.010315
2023-04-22T13:16:12.184Z,33.708191